Southern Sonoma County Latest

20 Stations

15 Minute Data
as of 9/4/26 9:03 AM PDT
Station Date Time Temp (°F) RH (%) Dew Pt (°F) Wind Spd (mph) Wind Dir (°) Wind Gust (mph) Latest Rain (In) Daily Rain (In) Daily Min Temp (°F) Daily Max Temp (°F)
Upper Rincon Valley 9/4/26 0900 55.7   3.2 91   7 53.0   5.2 1.4   0.3 WSW | 244 3.7   0.9 0.00 0.00 48.8   6.5 56.4   2.7
Lower Bennett Valley 9/4/26 0900 56.6   4.6 100   0 56.6   4.6 3.8   0.6 NNW | 340 5.8   0.6 0.00 0.00 47.5   7.6 57.2   4.3
Kenwood (Wildwood) 9/4/26 0900 57.2   3.8 88   5 53.6   5.2 2.1   1.1 NNE | 26 6.2   1.5 0.00 0.00 52.7   3.4 57.4   3.8
Crane Creek (Ranch 62) 9/4/26 0900 56.6   5.7 97   5 55.8   4.2 0.9   1.2 SSE | 161 2.6   5.8 0.00 0.00 53.6   6.1 57.0   5.5
Rohnert Park-West (Stony Point) 9/4/26 0900 54.4   7.3 98   1 54.0   7.0 0.0   1.6 WSW | 258 0.1   5.3 0.00 0.01 50.0   10.0 54.7   7.3
Rice-Spivak Vineyard 9/4/26 0900 55.1   7.6 - - - - - - - 48.1   12.1 56.6   6.3
Cartograph Wines Base 9/4/26 0900 54.2   7.6 98   2 53.8   7.0 0.8   5.3 NW | 315 2.3   9.6 0.00 0.00 50.0   9.7 56.7   5.2
Cartograph Wines Remote 9/4/26 0900 55.9   6.7 - - - - - - - 49.4   11.1 55.9   6.7
Penngrove (Asellus) 9/4/26 0900 56.0   7.5 97   14 55.2   3.0 3.6   2.3 NW | 311 6.4   1.8 0.00 0.00 52.3   5.1 58.6   5.1
Sonoma Valley (Bedrock) 9/4/26 0900 59.1   2.1 76   9 51.6   5.2 - - - 0.00 0.00 48.6   6.0 59.8   1.6
Sonoma-West (Arnold) 9/4/26 0900 59.8   3.5 89   7 56.5   1.1 1.5   1.0 W | 262 5.0   2.3 0.00 0.01 48.8   7.3 59.8   3.5
Sonoma Valley HS 9/4/26 0900 57.0   6.4 100   11 57.0   3.2 1.0   1.1 SW | 226 3.1   1.5 0.00 0.00 51.6   4.0 57.4   6.2
Sonoma East (Bundschu01) 9/4/26 0900 57.9   5.1 93   8 56.0   2.6 1.4   4.6 SSW | 200 3.3   8.1 0.00 0.00 49.4   1.9 58.8   4.4
Sonoma-SE (Napoli) 9/4/26 0900 57.5   5.7 95   10 56.0   2.7 0.0   4.9 NNE | 28 1.4   8.0 0.00 0.01 52.3   0.1 58.6   4.7
Schellville (Sasaki) 2/7/26 1900 53.4   2.2 88   10 49.9   1.0 3.3   1.8 SW | 225 5.8   4.0 0.00 0.00 47.0   0.8 62.8   8.4
Petaluma (Ranch 10) 9/4/26 0900 55.9   8.3 97   15 55.1   3.6 2.2   0.7 WNW | 293 5.7   2.6 0.00 0.00 54.9   3.0 58.9   5.4
Carneros (Ranch 71) 9/4/26 0900 56.6   5.7 100   14 56.6   1.4 1.7   5.1 W | 265 4.3   7.9 0.00 0.00 54.0   3.4 57.6   4.8
Ricci Vineyards (Carneros) 9/4/26 0900 57.6   5.8 94   12 56.0   2.0 2.1   5.1 WSW | 252 4.3   8.6 0.00 0.00 53.6   0.5 58.7   5.0
Carneros Upper (Ranch 81) 9/4/26 0900 56.5   5.9 1   84 -53.3   111.0 0.7   11.6 S | 188 4.3   15.7 - - 53.4   3.7 57.6   4.8
Carneros Lower (Ranch 81) 9/4/26 0900 57.4   6.0 0   84 -59.9   118.5 0.6   2.1 SE | 133 2.6   6.7 0.00 0.00 52.4   1.3 57.4   6.0
Max     59.8 100 57.0 3.8 - 6.4 0.00 0.01 54.9 59.8
Avg     56.7 83 42.0 1.5 - 3.8 0.00 - - -
Min     54.2 0 -59.9 0.0 - 0.1 0.00 0.00 47.5 54.7